Latest Weather Observations for Alice Springs Airport

IDD60801

Issued at 7:31 pm CST Sunday 14 February 2016 (issued every 30 minutes, with the page automatically refreshed every 10 minutes)

About weather observations | Map of weather stations | Latest weather observations for NT | Other Formats
Station Details ID: 015590 Name: ALICE SPRINGS AIRPORT Lat: -23.80 Lon: 133.89 Height: 546.0 m
Data from the previous 72 hours. | See also: Recent months at Alice Springs Airport
Date/Time
CST
Temp
°C
App
Temp
°C
Dew
Point
Rel
Hum
%
Delta-T
°C
Wind Press
QNH
hPa
Press
MSL
hPa
Rain
since 9 am
mm
Dir
 
Spd
km/h
Gust
km/h
Spd
kts
Gust
kts
14/07:30pm 34.9 29.8 -1.6 10 18.0 SE 15 19 8 10 1012.6 1008.6 0.0
14/07:00pm 36.2 30.3 -2.6 8 19.0 SE 19 28 10 15 1012.1 1008.1 0.0
14/06:30pm 37.1 31.1 -2.8 8 19.6 ESE 19 30 10 16 1011.6 1007.7 0.0
14/06:00pm 38.3 32.1 -4.9 6 20.7 S 19 32 10 17 1011.2 1007.3 0.0
14/05:30pm 38.4 31.5 -6.4 5 21.0 ESE 22 30 12 16 1010.9 1006.9 0.0
14/05:00pm 38.3 32.0 -5.5 6 20.8 ESE 19 33 10 18 1010.8 1006.8 0.0
14/04:30pm 38.9 30.7 -7.8 5 21.5 SE 28 37 15 20 1010.7 1006.7 0.0
14/04:00pm 39.8 31.9 -8.9 4 22.2 SE 26 37 14 20 1010.6 1006.6 0.0
14/03:30pm 39.3 31.8 -9.0 4 21.9 SE 24 35 13 19 1010.7 1006.7 0.0
14/03:00pm 39.7 33.7 -7.1 5 21.9 SE 17 30 9 16 1010.7 1006.7 0.0
14/02:30pm 39.2 32.8 -7.2 5 21.6 SSE 19 30 10 16 1011.0 1007.1 0.0
14/02:00pm 40.1 32.6 -9.1 4 22.4 S 24 35 13 19 1011.2 1007.3 0.0
14/01:30pm 38.7 32.1 -8.8 4 21.5 SSE 19 35 10 19 1011.4 1007.5 0.0
14/01:00pm 39.0 32.5 -7.4 5 21.5 SSE 19 35 10 19 1011.6 1007.7 0.0
14/12:30pm 39.0 32.3 -8.1 5 21.6 SSE 20 32 11 17 1012.1 1008.1 0.0
14/12:00pm 38.1 32.0 -7.8 5 21.0 SE 17 33 9 18 1012.4 1008.4 0.0
14/11:30am 38.3 31.5 -9.2 4 21.3 SE 20 33 11 18 1012.9 1009.0 0.0
14/11:00am 38.3 31.3 -7.7 5 21.1 SE 22 35 12 19 1013.0 1009.1 0.0
14/10:30am 36.3 30.8 -5.8 6 19.6 E 15 30 8 16 1013.4 1009.5 0.0
14/10:00am 36.3 31.7 -1.3 9 18.8 ENE 13 22 7 12 1013.5 1009.6 0.0
14/09:30am 35.1 31.1 -2.0 9 18.2 NNE 9 15 5 8 1013.6 1009.7 0.0
14/09:00am 33.6 29.8 -1.1 11 17.1 N 9 15 5 8 1013.7 1009.8 0.0
14/08:30am 31.0 27.6 1.6 15 14.9 NW 9 11 5 6 1013.7 1009.8 0.0
14/08:00am 27.7 24.4 0.3 17 13.3 WSW 7 9 4 5 1013.7 1009.8 0.0
14/07:30am 25.0 21.9 1.3 21 11.5 W 7 11 4 6 1013.3 1009.4 0.0
14/07:00am 20.8 18.3 3.8 32 8.4 N 6 7 3 4 1012.8 1008.9 0.0
14/06:30am 19.9 16.6 2.6 31 8.3 NW 9 9 5 5 1012.7 1008.8 0.0
14/06:00am 19.4 15.2 1.7 30 8.3 WNW 13 13 7 7 1012.4 1008.4 0.0
14/05:30am 20.0 15.6 0.4 27 9.0 NW 13 13 7 7 1012.2 1008.2 0.0
14/05:00am 19.1 15.4 2.2 32 8.0 WNW 11 13 6 7 1011.8 1007.9 0.0
14/04:30am 20.1 16.6 1.0 28 8.9 WNW 9 11 5 6 1011.6 1007.7 0.0
14/04:00am 19.6 16.1 1.1 29 8.6 WNW 9 11 5 6 1011.3 1007.4 0.0
14/03:30am 19.8 16.1 2.1 31 8.4 WSW 11 13 6 7 1011.2 1007.3 0.0
14/03:00am 20.7 17.3 2.1 29 8.9 WNW 9 11 5 6 1011.1 1007.2 0.0
14/02:30am 22.3 18.7 0.9 24 10.1 NW 9 11 5 6 1011.2 1007.3 0.0
14/02:00am 21.9 20.2 1.6 26 9.7 CALM 0 0 0 0 1011.5 1007.6 0.0
14/01:30am 21.9 21.1 6.4 36 8.1 CALM 0 0 0 0 1011.7 1007.8 0.0
14/01:00am 23.6 20.5 1.3 23 10.7 WNW 7 9 4 5 1012.1 1008.1 0.0
14/12:30am 22.6 20.5 1.8 25 10.0 SW 2 7 1 4 1012.4 1008.4 0.0
14/12:00am 24.4 23.2 4.5 27 10.2 CALM 0 0 0 0 1012.4 1008.4 0.0
 
Date/Time
CST
Temp
°C
App
Temp
°C
Dew
Point
Rel
Hum
%
Delta-T
°C
Wind Press
QNH
hPa
Press
MSL
hPa
Rain
since 9 am
mm
Dir
 
Spd
km/h
Gust
km/h
Spd
kts
Gust
kts
13/11:30pm 24.9 21.9 2.2 22 11.2 E 7 7 4 4 1012.6 1008.6 0.0
13/11:00pm 27.8 25.1 2.8 20 12.7 ENE 6 7 3 4 1012.6 1008.6 0.0
13/10:30pm 27.5 25.0 4.5 23 12.0 NE 7 11 4 6 1012.6 1008.6 0.0
13/10:00pm 29.3 26.0 2.4 18 13.7 ENE 9 9 5 5 1012.5 1008.5 0.0
13/09:30pm 29.5 26.3 3.1 18 13.6 ESE 9 11 5 6 1012.3 1008.3 0.0
13/09:00pm 30.5 26.6 1.3 15 14.7 SE 11 11 6 6 1012.2 1008.2 0.0
13/08:30pm 31.2 26.9 1.0 14 15.2 SE 13 13 7 7 1011.8 1007.9 0.0
13/08:00pm 32.7 28.4 1.0 13 16.1 ESE 13 13 7 7 1011.5 1007.6 0.0
13/07:30pm 34.8 29.9 -0.8 10 17.8 SE 15 19 8 10 1011.1 1007.2 0.0
13/07:00pm 37.0 30.9 -4.2 7 19.8 ESE 19 28 10 15 1010.7 1006.7 0.0
13/06:30pm 38.4 32.5 -5.7 6 20.9 SSE 17 20 9 11 1010.6 1006.6 0.0
13/06:00pm 39.0 33.2 -4.6 6 21.1 S 17 26 9 14 1010.5 1006.5 0.0
13/05:30pm 39.7 32.7 -7.0 5 21.9 SSE 22 33 12 18 1010.3 1006.3 0.0
13/05:00pm 39.7 32.9 -5.0 6 21.6 SSE 22 32 12 17 1010.2 1006.2 0.0
13/04:30pm 39.9 33.1 -4.8 6 21.7 SSE 22 32 12 17 1010.3 1006.3 0.0
13/04:00pm 40.4 34.1 -5.4 5 22.1 SSW 19 28 10 15 1010.3 1006.3 0.0
13/03:30pm 41.2 34.6 -6.8 5 22.8 S 20 39 11 21 1010.4 1006.4 0.0
13/03:00pm 40.1 33.1 -3.5 6 21.6 S 24 35 13 19 1010.8 1006.8 0.0
13/02:30pm 39.9 33.6 -3.6 6 21.5 SSE 20 32 11 17 1011.0 1007.1 0.0
13/02:00pm 38.7 34.5 -1.2 8 20.3 ESE 11 19 6 10 1011.4 1007.5 0.0
13/01:30pm 38.8 34.1 -1.5 8 20.4 SSE 13 26 7 14 1012.1 1008.1 0.0
13/01:00pm 38.9 32.8 -2.2 7 20.6 S 20 35 11 19 1012.3 1008.3 0.0
13/12:30pm 37.3 32.7 -0.7 9 19.3 ESE 13 24 7 13 1012.7 1008.8 0.0
13/12:00pm 37.9 33.6 -1.8 8 19.9 W 11 20 6 11 1013.1 1009.2 0.0
13/11:30am 37.2 33.1 -0.1 9 19.1 NE 11 22 6 12 1013.5 1009.6 0.0
13/11:00am 37.2 32.6 1.7 11 18.7 NE 15 24 8 13 1014.0 1010.0 0.0
13/10:30am 35.9 30.9 1.6 11 17.9 ENE 17 26 9 14 1014.3 1010.3 0.0
13/10:00am 34.8 28.9 1.7 12 17.2 ENE 22 33 12 18 1014.5 1010.6 0.0
13/09:30am 34.3 29.4 2.0 13 16.8 ENE 17 28 9 15 1014.7 1010.8 0.0
13/09:00am 33.2 30.6 3.3 15 15.8 N 6 7 3 4 1014.8 1010.9 0.0
13/08:30am 31.2 28.9 4.6 18 14.2 NW 6 7 3 4 1014.9 1011.0 0.0
13/08:00am 28.6 26.1 4.7 22 12.6 WNW 7 9 4 5 1014.8 1010.9 0.0
13/07:30am 25.2 22.1 3.7 25 10.9 WNW 9 11 5 6 1014.7 1010.8 0.0
13/07:00am 22.1 18.5 2.9 28 9.4 NW 11 11 6 6 1014.5 1010.6 0.0
13/06:30am 19.7 16.6 3.8 35 7.8 NW 9 11 5 6 1014.1 1010.1 0.0
13/06:00am 20.8 17.9 4.6 34 8.1 NNW 9 9 5 5 1013.8 1009.9 0.0
13/05:30am 20.4 16.5 3.4 32 8.3 NNW 13 17 7 9 1013.5 1009.6 0.0
13/05:00am 21.3 19.1 5.2 35 8.2 SSE 6 7 3 4 1013.0 1009.1 0.0
13/04:30am 20.1 17.4 5.8 39 7.3 W 9 20 5 11 1012.9 1009.0 0.0
13/04:00am 21.5 18.4 3.4 30 8.9 WNW 9 9 5 5 1012.6 1008.6 0.0
13/03:30am 21.9 19.4 3.8 30 9.0 NW 6 7 3 4 1012.5 1008.5 0.0
13/03:00am 22.4 19.7 3.7 29 9.3 WNW 7 7 4 4 1012.4 1008.4 0.0
13/02:30am 23.2 20.0 3.3 27 9.9 WNW 9 9 5 5 1012.5 1008.5 0.0
13/02:00am 24.2 20.6 2.8 24 10.6 NW 11 11 6 6 1012.7 1008.8 0.0
13/01:30am 23.2 20.0 2.9 26 10.0 W 9 9 5 5 1013.0 1009.1 0.0
13/01:00am 23.7 21.3 5.1 30 9.6 WSW 7 13 4 7 1013.1 1009.2 0.0
13/12:30am 25.3 23.7 4.5 26 10.7 N 2 7 1 4 1013.3 1009.4 0.0
13/12:00am 25.7 21.7 3.0 23 11.4 N 13 15 7 8 1013.5 1009.6 0.0
 
Date/Time
CST
Temp
°C
App
Temp
°C
Dew
Point
Rel
Hum
%
Delta-T
°C
Wind Press
QNH
hPa
Press
MSL
hPa
Rain
since 9 am
mm
Dir
 
Spd
km/h
Gust
km/h
Spd
kts
Gust
kts
12/11:30pm 26.7 24.2 4.9 24 11.4 ESE 7 9 4 5 1013.5 1009.6 0.0
12/11:00pm 26.2 21.9 3.3 22 11.6 S 15 20 8 11 1013.6 1009.7 0.0
12/10:30pm 26.7 25.8 6.1 27 11.0 CALM 0 0 0 0 1013.4 1009.5 0.0
12/10:00pm 27.1 25.9 4.7 24 11.7 CALM 0 4 0 2 1013.3 1009.4 0.0
12/09:30pm 29.1 26.5 6.2 23 12.4 E 9 11 5 6 1013.1 1009.2 0.0
12/09:00pm 30.1 26.4 2.6 17 14.1 ESE 11 11 6 6 1012.9 1009.0 0.0
12/08:30pm 31.2 27.5 2.5 16 14.8 ESE 11 15 6 8 1012.7 1008.8 0.0
12/08:00pm 33.2 28.9 1.0 13 16.4 ESE 13 15 7 8 1012.5 1008.5 0.0
12/07:30pm 34.4 29.9 -0.2 11 17.4 ESE 13 17 7 9 1012.2 1008.2 0.0
12/07:00pm 35.8 30.5 -0.8 10 18.4 ESE 17 26 9 14 1011.8 1007.9 0.0
12/06:30pm 36.8 30.8 -2.7 8 19.4 ESE 19 26 10 14 1011.4 1007.5 0.0
12/06:00pm 37.1 32.5 -1.2 9 19.3 ESE 13 20 7 11 1011.2 1007.3 0.0
12/05:30pm 38.0 32.5 -1.9 8 20.0 SE 17 28 9 15 1011.1 1007.2 0.0
12/05:00pm 38.0 33.0 -1.4 8 19.9 E 15 26 8 14 1011.1 1007.2 0.0
12/04:30pm 39.1 33.0 -2.0 7 20.7 SE 20 33 11 18 1011.1 1007.2 0.0
12/04:00pm 38.7 34.4 1.1 9 19.8 SSE 13 24 7 13 1011.3 1007.4 0.0
12/03:30pm 38.1 33.1 -1.1 8 19.9 SSE 15 30 8 16 1011.6 1007.7 0.0
12/03:00pm 38.8 31.0 -4.2 6 20.9 ESE 28 35 15 19 1011.8 1007.9 0.0
12/02:30pm 38.8 33.1 -0.5 8 20.2 ESE 19 33 10 18 1012.3 1008.3 0.0
12/02:00pm 37.4 32.0 -1.4 8 19.5 ESE 17 30 9 16 1012.6 1008.6 0.0
12/01:30pm 37.7 31.8 -0.5 9 19.5 SE 20 32 11 17 1013.0 1009.1 0.0
12/01:00pm 37.7 32.9 0.5 9 19.3 E 15 24 8 13 1013.4 1009.5 0.0
12/12:30pm 37.0 32.9 2.4 11 18.4 WNW 13 26 7 14 1014.0 1010.0 0.0
12/12:00pm 36.7 32.7 2.8 12 18.1 SE 13 26 7 14 1014.4 1010.5 0.0
12/11:30am 35.5 31.8 4.5 14 16.9 E 13 26 7 14 1014.7 1010.8 0.0
12/11:00am 36.2 33.3 4.6 14 17.3 NNE 9 15 5 8 1015.1 1011.2 0.0
12/10:30am 34.3 31.4 4.6 15 16.1 NE 9 13 5 7 1015.4 1011.5 0.0
12/10:00am 34.0 31.7 5.0 16 15.8 E 6 9 3 5 1015.7 1011.8 0.0
12/09:30am 32.7 30.6 5.6 18 14.8 SSW 6 11 3 6 1015.8 1011.9 0.0
12/09:00am 31.3 29.1 6.0 20 13.8 SSW 7 9 4 5 1016.0 1012.1 0.0
12/08:30am 29.3 27.3 6.3 23 12.5 NW 6 9 3 5 1015.8 1011.9 0.0
12/08:00am 27.2 24.9 5.8 25 11.4 WNW 7 9 4 5 1015.6 1011.7 0.0
12/07:30am 24.6 22.0 6.2 30 9.7 N 9 13 5 7 1015.6 1011.7 0.0
12/07:00am 21.7 19.1 6.0 36 8.1 SW 9 11 5 6 1015.3 1011.4 0.0
12/06:30am 20.0 17.0 5.9 39 7.2 SW 11 13 6 7 1014.6 1010.7 0.0
12/06:00am 20.3 18.1 6.1 39 7.3 SW 7 9 4 5 1014.0 1010.0 0.0
12/05:30am 20.4 17.5 6.5 40 7.2 W 11 11 6 6 1013.5 1009.6 0.0
12/05:00am 21.4 18.6 5.3 35 8.2 W 9 11 5 6 1013.3 1009.4 0.0
12/04:30am 21.9 19.7 5.3 34 8.5 WNW 6 7 3 4 1013.1 1009.2 0.0
12/04:00am 22.2 20.8 5.5 33 8.6 SSW 2 7 1 4 1012.9 1009.0 0.0
12/03:30am 22.5 20.9 8.1 39 7.8 SSE 6 9 3 5 1012.8 1008.9 0.0
12/03:00am 23.9 22.8 7.1 34 9.0 NE 2 6 1 3 1012.8 1008.9 0.0
12/02:30am 25.1 23.0 8.1 34 9.3 NE 9 13 5 7 1012.7 1008.8 0.0
12/02:00am 26.4 23.3 5.6 26 11.0 NE 11 15 6 8 1012.9 1009.0 0.0
12/01:30am 26.3 22.9 6.0 27 10.8 NE 13 15 7 8 1013.0 1009.1 0.0
12/01:00am 26.0 22.6 5.8 27 10.7 NE 13 15 7 8 1013.2 1009.3 0.0
12/12:30am 27.2 24.4 5.2 24 11.6 NE 9 11 5 6 1013.5 1009.6 0.0
12/12:00am 26.3 23.6 5.7 26 10.9 NE 9 15 5 8 1013.7 1009.8 0.0
 
Date/Time
CST
Temp
°C
App
Temp
°C
Dew
Point
Rel
Hum
%
Delta-T
°C
Wind Press
QNH
hPa
Press
MSL
hPa
Rain
since 9 am
mm
Dir
 
Spd
km/h
Gust
km/h
Spd
kts
Gust
kts
11/11:30pm 26.1 23.8 5.9 27 10.7 E 7 11 4 6 1014.0 1010.0 0.0
11/11:00pm 27.5 25.6 7.7 28 10.9 SE 7 9 4 5 1013.8 1009.9 0.0
11/10:30pm 28.6 25.8 5.0 22 12.5 SE 9 9 5 5 1013.8 1009.9 0.0
11/10:00pm 28.8 26.0 5.1 22 12.6 SSE 9 11 5 6 1013.7 1009.8 0.0
11/09:30pm 29.0 27.2 9.4 29 11.2 SSE 9 9 5 5 1013.4 1009.5 0.0
11/09:00pm 29.5 26.3 5.1 21 13.0 SSE 11 13 6 7 1013.1 1009.2 0.0
11/08:30pm 31.2 27.5 4.3 18 14.3 SSE 13 15 7 8 1012.8 1008.9 0.0
11/08:00pm 32.8 28.9 3.5 15 15.5 SSE 13 17 7 9 1012.5 1008.5 0.0

Other Formats:

Comma delimited format used in spreadsheet applications
http://www.bom.gov.au/fwo/IDD60801/IDD60801.94326.axf

JavaScript Object Notation format (JSON) in row-major order
http://www.bom.gov.au/fwo/IDD60801/IDD60801.94326.json